createdAt,value
2022-12-03T00:02:02.821Z,9.08
2022-12-03T00:04:29.701Z,9.12
2022-12-03T00:06:56.381Z,9.20
2022-12-03T00:09:23.103Z,9.02
2022-12-03T00:11:49.948Z,8.96
2022-12-03T00:14:16.545Z,9.01
2022-12-03T00:16:43.499Z,8.89
2022-12-03T00:19:10.103Z,8.98
2022-12-03T00:21:36.764Z,8.95
2022-12-03T00:24:03.532Z,8.79
2022-12-03T00:26:30.268Z,8.87
2022-12-03T00:28:57.912Z,8.84
2022-12-03T00:31:25.223Z,8.89
2022-12-03T00:33:52.292Z,8.85
2022-12-03T00:36:19.561Z,8.72
2022-12-03T00:38:46.209Z,8.86
2022-12-03T00:41:13.146Z,8.93
2022-12-03T00:43:39.813Z,8.96
2022-12-03T00:46:06.877Z,8.85
2022-12-03T00:48:33.653Z,8.75
2022-12-03T00:51:00.250Z,8.78
2022-12-03T00:53:26.945Z,8.89
2022-12-03T00:55:53.558Z,8.92
2022-12-03T00:58:20.176Z,8.92
2022-12-03T01:00:47.008Z,8.83
2022-12-03T01:03:13.655Z,8.74
2022-12-03T01:05:40.265Z,8.84
2022-12-03T01:08:07.005Z,8.98
2022-12-03T01:10:33.800Z,8.89
2022-12-03T01:13:00.437Z,8.66
2022-12-03T01:15:27.072Z,8.90
2022-12-03T01:17:54.379Z,8.82
2022-12-03T01:20:21.282Z,8.81
2022-12-03T01:22:47.955Z,8.88
2022-12-03T01:25:15.135Z,9.03
2022-12-03T01:27:41.730Z,8.67
2022-12-03T01:30:09.269Z,8.91
2022-12-03T01:32:35.859Z,9.07
2022-12-03T01:35:02.666Z,8.86
2022-12-03T01:37:29.512Z,9.07
2022-12-03T01:39:56.537Z,9.03
2022-12-03T01:42:30.354Z,9.06
2022-12-03T01:44:59.172Z,8.88
2022-12-03T01:47:33.406Z,8.99
2022-12-03T01:50:08.664Z,9.03
2022-12-03T01:52:38.855Z,9.12
2022-12-03T01:55:12.784Z,9.12
2022-12-03T01:57:55.646Z,9.10
2022-12-03T02:00:25.155Z,9.13
2022-12-03T02:03:03.928Z,9.20
2022-12-03T02:05:33.385Z,9.20
2022-12-03T02:08:02.413Z,9.08
2022-12-03T02:10:36.184Z,9.12
2022-12-03T02:13:06.806Z,9.09
2022-12-03T02:15:33.852Z,9.04
2022-12-03T02:18:00.875Z,8.88
2022-12-03T02:20:27.982Z,9.06
2022-12-03T02:23:13.751Z,8.88
2022-12-03T02:25:40.524Z,8.63
2022-12-03T02:28:09.710Z,8.82
2022-12-03T02:30:37.114Z,8.93
2022-12-03T02:33:04.284Z,8.74
2022-12-03T02:35:34.421Z,8.84
2022-12-03T02:38:27.130Z,9.00
2022-12-03T02:40:57.103Z,8.90
2022-12-03T02:43:24.393Z,8.94
2022-12-03T02:45:54.592Z,8.83
2022-12-03T02:48:27.089Z,8.84
2022-12-03T02:50:57.851Z,8.97
2022-12-03T02:53:31.172Z,8.83
2022-12-03T02:56:00.632Z,8.87
2022-12-03T02:58:31.543Z,8.87
2022-12-03T03:00:58.976Z,8.77
2022-12-03T03:03:28.784Z,8.76
2022-12-03T03:05:59.381Z,9.09
2022-12-03T03:08:27.538Z,8.89
2022-12-03T03:10:55.613Z,8.87
2022-12-03T03:13:22.566Z,9.09
2022-12-03T03:15:49.231Z,8.97
2022-12-03T03:18:16.846Z,9.12
2022-12-03T03:20:44.421Z,9.03
2022-12-03T03:23:11.063Z,8.95
2022-12-03T03:25:43.943Z,8.98
2022-12-03T03:28:11.400Z,8.99
2022-12-03T03:30:39.512Z,9.12
2022-12-03T03:33:07.390Z,9.12
2022-12-03T03:35:34.504Z,9.16
2022-12-03T03:38:01.329Z,9.10
2022-12-03T03:40:28.700Z,9.01
2022-12-03T03:42:56.873Z,8.76
2022-12-03T03:45:28.823Z,8.82
2022-12-03T03:47:59.064Z,9.03
2022-12-03T03:50:28.883Z,9.18
2022-12-03T03:52:56.909Z,9.07
2022-12-03T03:55:23.874Z,9.04
2022-12-03T03:57:50.892Z,8.99
2022-12-03T04:00:18.046Z,9.14
2022-12-03T04:02:44.852Z,9.07
2022-12-03T04:05:21.199Z,9.03
2022-12-03T04:07:48.511Z,8.93
2022-12-03T04:10:35.208Z,8.79
2022-12-03T04:13:02.171Z,8.99
2022-12-03T04:15:29.172Z,8.90
2022-12-03T04:18:14.655Z,8.95
2022-12-03T04:20:41.492Z,8.94
2022-12-03T04:23:08.535Z,8.97
2022-12-03T04:25:53.735Z,8.97
2022-12-03T04:28:39.357Z,8.96
2022-12-03T04:31:26.156Z,9.00
2022-12-03T04:34:11.922Z,8.97
2022-12-03T04:36:38.855Z,8.97
2022-12-03T04:39:06.035Z,8.80
2022-12-03T04:41:32.638Z,8.92
2022-12-03T04:44:18.019Z,8.90
2022-12-03T04:46:44.692Z,9.00
2022-12-03T04:49:11.323Z,8.85
2022-12-03T04:51:38.047Z,8.92
2022-12-03T04:54:04.667Z,9.00
2022-12-03T04:56:31.284Z,8.97
2022-12-03T04:58:57.984Z,8.90
2022-12-03T05:01:24.828Z,8.86
2022-12-03T05:03:51.682Z,9.03
2022-12-03T05:06:18.377Z,8.84
2022-12-03T05:08:44.994Z,8.90
2022-12-03T05:11:11.758Z,8.92
2022-12-03T05:13:38.667Z,9.01
2022-12-03T05:16:05.543Z,8.96
2022-12-03T05:18:32.406Z,8.85
2022-12-03T05:20:59.090Z,8.90
2022-12-03T05:23:25.921Z,8.98
2022-12-03T05:25:52.619Z,9.02
2022-12-03T05:28:22.271Z,9.05
2022-12-03T05:30:49.037Z,8.85
2022-12-03T05:33:15.965Z,8.97
2022-12-03T05:35:42.813Z,8.96
2022-12-03T05:38:09.504Z,8.87
2022-12-03T05:40:36.092Z,8.97
2022-12-03T05:43:02.919Z,8.70
2022-12-03T05:45:39.118Z,8.94
2022-12-03T05:48:08.348Z,8.91
2022-12-03T05:50:37.869Z,8.97
2022-12-03T05:53:05.092Z,8.84
2022-12-03T05:55:32.526Z,8.82
2022-12-03T05:57:59.159Z,8.82
2022-12-03T06:00:29.183Z,8.82
2022-12-03T06:02:56.494Z,8.76
2022-12-03T06:05:23.679Z,8.86
2022-12-03T06:07:52.207Z,8.96
2022-12-03T06:10:22.823Z,8.87
2022-12-03T06:12:50.146Z,8.95
2022-12-03T06:15:17.518Z,8.86
2022-12-03T06:17:44.260Z,8.83
2022-12-03T06:20:13.992Z,9.05
2022-12-03T06:22:40.816Z,8.87
2022-12-03T06:25:08.178Z,8.87
2022-12-03T06:27:34.806Z,8.93
2022-12-03T06:30:01.819Z,8.91
2022-12-03T06:32:28.575Z,8.74
2022-12-03T06:35:10.465Z,8.71
2022-12-03T06:37:37.107Z,8.63
2022-12-03T06:40:04.471Z,8.70
2022-12-03T06:42:31.226Z,8.77
2022-12-03T06:44:57.933Z,8.63
2022-12-03T06:47:24.585Z,8.59
2022-12-03T06:49:51.619Z,8.63
2022-12-03T06:52:18.305Z,8.89
2022-12-03T06:54:44.966Z,8.68
2022-12-03T06:57:11.576Z,8.39
2022-12-03T06:59:38.340Z,8.85
2022-12-03T07:02:05.239Z,8.64
2022-12-03T07:04:31.987Z,8.57
2022-12-03T07:06:58.689Z,8.72
2022-12-03T07:09:25.361Z,8.63
2022-12-03T07:11:52.055Z,8.57
2022-12-03T07:14:18.805Z,8.57
2022-12-03T07:16:45.535Z,8.55
2022-12-03T07:19:12.294Z,8.31
2022-12-03T07:21:39.340Z,8.50
2022-12-03T07:24:06.767Z,8.58
2022-12-03T07:26:33.648Z,8.65
2022-12-03T07:29:00.413Z,8.59
2022-12-03T07:31:27.345Z,8.68
2022-12-03T07:33:54.344Z,8.43
2022-12-03T07:36:21.060Z,8.67
2022-12-03T07:38:47.897Z,8.64
2022-12-03T07:41:14.531Z,8.72
2022-12-03T07:43:41.328Z,8.63
2022-12-03T07:46:08.658Z,8.55
2022-12-03T07:48:35.394Z,8.62
2022-12-03T07:51:02.558Z,8.39
2022-12-03T07:53:29.208Z,8.27
2022-12-03T07:55:55.853Z,8.40
2022-12-03T07:58:22.611Z,8.32
2022-12-03T08:00:49.410Z,8.53
2022-12-03T08:03:16.143Z,8.63
2022-12-03T08:05:43.019Z,8.63
2022-12-03T08:08:09.726Z,8.63
2022-12-03T08:10:36.492Z,8.39
2022-12-03T08:13:07.188Z,8.38
2022-12-03T08:15:39.096Z,8.40
2022-12-03T08:18:18.699Z,8.48
2022-12-03T08:20:48.260Z,8.41
2022-12-03T08:23:23.710Z,8.49
2022-12-03T08:25:52.069Z,8.49
2022-12-03T08:28:28.094Z,8.55
2022-12-03T08:31:02.905Z,8.62
2022-12-03T08:33:36.416Z,8.48
2022-12-03T08:36:16.415Z,8.67
2022-12-03T08:38:49.263Z,8.45
2022-12-03T08:41:36.970Z,8.62
2022-12-03T08:44:29.675Z,8.71
2022-12-03T08:47:19.249Z,8.76
2022-12-03T08:49:58.969Z,8.53
2022-12-03T08:52:33.968Z,8.47
2022-12-03T08:55:03.085Z,8.89
2022-12-03T08:57:32.398Z,8.57
2022-12-03T09:00:26.943Z,8.79
2022-12-03T09:02:59.929Z,8.95
2022-12-03T09:05:30.082Z,8.74
2022-12-03T09:07:59.984Z,8.77
2022-12-03T09:10:26.841Z,8.70
2022-12-03T09:12:56.777Z,8.60
2022-12-03T09:15:23.458Z,8.86
2022-12-03T09:17:50.552Z,8.77
2022-12-03T09:20:17.380Z,8.95
2022-12-03T09:22:44.176Z,8.79
2022-12-03T09:25:11.132Z,8.84
2022-12-03T09:27:39.047Z,8.71
2022-12-03T09:30:06.731Z,8.62
2022-12-03T09:32:33.885Z,8.31
2022-12-03T09:35:00.700Z,8.41
2022-12-03T09:37:27.792Z,8.62
2022-12-03T09:39:57.113Z,8.63
2022-12-03T09:42:27.028Z,8.72
2022-12-03T09:44:54.278Z,8.87
2022-12-03T09:47:25.329Z,8.60
2022-12-03T09:49:56.374Z,8.71
2022-12-03T09:52:29.047Z,8.96
2022-12-03T09:54:56.037Z,8.94
2022-12-03T09:57:22.909Z,8.52
2022-12-03T09:59:49.735Z,8.62
2022-12-03T10:02:29.628Z,8.43
2022-12-03T10:04:58.738Z,8.51
2022-12-03T10:07:26.363Z,8.22
2022-12-03T10:09:53.845Z,8.52
2022-12-03T10:12:24.692Z,8.91
2022-12-03T10:14:52.480Z,8.65
2022-12-03T10:17:19.762Z,8.72
2022-12-03T10:19:46.810Z,8.73
2022-12-03T10:22:13.941Z,8.71
2022-12-03T10:24:41.049Z,9.01
2022-12-03T10:27:22.963Z,8.99
2022-12-03T10:30:00.951Z,8.84
2022-12-03T10:32:40.317Z,8.57
2022-12-03T10:35:22.649Z,8.68
2022-12-03T10:38:00.424Z,9.02
2022-12-03T10:40:32.383Z,8.79
2022-12-03T10:43:16.534Z,8.84
2022-12-03T10:45:43.974Z,8.73
2022-12-03T10:48:13.701Z,8.95
2022-12-03T10:50:52.711Z,8.70
2022-12-03T10:53:22.295Z,8.66
2022-12-03T10:55:51.526Z,8.57
2022-12-03T10:58:30.167Z,8.87
2022-12-03T11:01:01.262Z,9.19
2022-12-03T11:03:35.007Z,8.81
2022-12-03T11:06:03.261Z,9.07
2022-12-03T11:08:36.845Z,9.12
2022-12-03T11:11:07.336Z,9.23
2022-12-03T11:13:33.938Z,9.22
2022-12-03T11:16:01.831Z,9.10
2022-12-03T11:18:34.709Z,9.43
2022-12-03T11:21:02.269Z,8.94
2022-12-03T11:23:44.272Z,9.13
2022-12-03T11:26:18.441Z,9.06
2022-12-03T11:28:45.774Z,9.29
2022-12-03T11:31:34.573Z,9.29
2022-12-03T11:34:22.723Z,9.14
2022-12-03T11:37:11.154Z,9.07
2022-12-03T11:39:50.636Z,9.26
2022-12-03T11:42:26.298Z,9.30
2022-12-03T11:45:11.075Z,9.37
2022-12-03T11:47:43.886Z,9.24
2022-12-03T11:50:37.684Z,9.09
2022-12-03T11:53:19.725Z,9.18
2022-12-03T11:55:52.224Z,9.13
2022-12-03T11:58:21.910Z,9.14
2022-12-03T12:00:51.188Z,9.12
2022-12-03T12:03:26.140Z,9.23
2022-12-03T12:06:18.923Z,9.32
2022-12-03T12:08:51.802Z,9.25
2022-12-03T12:11:27.059Z,9.17
2022-12-03T12:13:58.951Z,9.01
2022-12-03T12:16:51.423Z,8.81
2022-12-03T12:19:32.011Z,8.90
2022-12-03T12:22:28.708Z,8.71
2022-12-03T12:25:01.366Z,8.84
2022-12-03T12:27:32.694Z,8.85
2022-12-03T12:30:06.792Z,8.60
2022-12-03T12:32:50.284Z,8.81
2022-12-03T12:35:19.942Z,8.96
2022-12-03T12:38:02.884Z,9.03
2022-12-03T12:40:32.390Z,8.98
2022-12-03T12:43:05.591Z,8.87
2022-12-03T12:45:42.009Z,8.63
2022-12-03T12:48:14.711Z,8.94
2022-12-03T12:50:43.838Z,9.15
2022-12-03T12:53:27.244Z,9.18
2022-12-03T12:56:05.558Z,9.06
2022-12-03T12:58:33.708Z,8.94
2022-12-03T13:01:21.444Z,9.10
2022-12-03T13:03:51.483Z,9.25
2022-12-03T13:06:23.863Z,8.78
2022-12-03T13:08:50.746Z,9.05
2022-12-03T13:11:34.484Z,8.96
2022-12-03T13:14:17.913Z,9.11
2022-12-03T13:16:44.894Z,9.18
2022-12-03T13:19:24.125Z,9.02
2022-12-03T13:21:55.845Z,9.05
2022-12-03T13:24:39.192Z,8.95
2022-12-03T13:27:18.263Z,9.03
2022-12-03T13:29:46.486Z,9.05
2022-12-03T13:32:22.096Z,9.04
2022-12-03T13:34:50.644Z,8.90
2022-12-03T13:37:26.952Z,9.00
2022-12-03T13:39:56.879Z,8.68
2022-12-03T13:42:39.587Z,8.76
2022-12-03T13:45:35.655Z,8.83
2022-12-03T13:48:15.142Z,9.01
2022-12-03T13:50:46.170Z,8.90
2022-12-03T13:53:33.351Z,8.69
2022-12-03T13:56:21.203Z,8.76
2022-12-03T13:58:54.150Z,8.44
2022-12-03T14:01:20.875Z,8.22
2022-12-03T14:03:47.669Z,8.42
2022-12-03T14:06:14.673Z,8.35
2022-12-03T14:08:41.561Z,8.31
2022-12-03T14:11:08.347Z,8.20
2022-12-03T14:13:35.384Z,8.31
2022-12-03T14:16:02.138Z,8.41
2022-12-03T14:18:28.914Z,8.23
2022-12-03T14:20:55.626Z,8.01
2022-12-03T14:23:22.303Z,8.27
2022-12-03T14:25:49.042Z,8.04
2022-12-03T14:28:15.791Z,8.11
2022-12-03T14:30:42.489Z,8.29
2022-12-03T14:33:09.285Z,8.27
2022-12-03T14:35:36.118Z,8.14
2022-12-03T14:38:02.892Z,8.32
2022-12-03T14:40:29.663Z,8.20
2022-12-03T14:42:56.445Z,8.66
2022-12-03T14:45:24.340Z,8.57
2022-12-03T14:47:51.052Z,8.46
2022-12-03T14:50:17.816Z,8.49
2022-12-03T14:52:44.687Z,8.41
2022-12-03T14:55:11.416Z,8.49
2022-12-03T14:57:38.171Z,8.66
2022-12-03T15:00:07.178Z,8.39
2022-12-03T15:02:34.089Z,8.30
2022-12-03T15:05:01.354Z,8.28
2022-12-03T15:07:28.178Z,8.24
2022-12-03T15:09:55.087Z,8.24
2022-12-03T15:12:21.961Z,8.53
2022-12-03T15:14:48.823Z,8.51
2022-12-03T15:17:15.664Z,8.53
2022-12-03T15:19:42.545Z,8.23
2022-12-03T15:22:09.194Z,8.15
2022-12-03T15:24:35.937Z,8.34
2022-12-03T15:27:02.755Z,8.50
2022-12-03T15:29:29.420Z,7.95
2022-12-03T15:31:56.224Z,8.00
2022-12-03T15:34:23.502Z,7.96
2022-12-03T15:36:51.269Z,8.15
2022-12-03T15:39:17.905Z,8.03
2022-12-03T15:41:44.631Z,7.94
2022-12-03T15:44:11.403Z,8.14
2022-12-03T15:46:38.086Z,8.05
2022-12-03T15:49:04.930Z,7.91
2022-12-03T15:51:31.710Z,7.95
2022-12-03T15:53:58.407Z,7.82
2022-12-03T15:56:25.103Z,7.86
2022-12-03T15:58:53.549Z,7.72
2022-12-03T16:01:20.419Z,7.81
2022-12-03T16:03:47.215Z,8.26
2022-12-03T16:06:14.895Z,8.17
2022-12-03T16:08:41.714Z,8.07
2022-12-03T16:11:08.812Z,8.21
2022-12-03T16:13:35.526Z,7.84
2022-12-03T16:16:02.359Z,7.89
2022-12-03T16:18:31.623Z,7.94
2022-12-03T16:20:59.333Z,7.80
2022-12-03T16:23:26.150Z,7.96
2022-12-03T16:25:52.924Z,7.97
2022-12-03T16:28:19.540Z,7.63
2022-12-03T16:30:46.443Z,7.79
2022-12-03T16:33:13.222Z,7.78
2022-12-03T16:35:39.924Z,7.86
2022-12-03T16:38:06.644Z,7.76
2022-12-03T16:40:33.384Z,7.86
2022-12-03T16:43:00.137Z,7.76
2022-12-03T16:45:51.272Z,7.74
2022-12-03T16:48:20.382Z,8.09
2022-12-03T16:50:47.165Z,7.87
2022-12-03T16:53:24.001Z,8.07
2022-12-03T16:55:51.362Z,7.94
2022-12-03T16:58:21.720Z,7.95
2022-12-03T17:00:50.833Z,7.88
2022-12-03T17:03:22.136Z,7.84
2022-12-03T17:05:50.101Z,7.56
2022-12-03T17:08:17.548Z,7.51
2022-12-03T17:10:46.097Z,7.45
2022-12-03T17:13:13.333Z,7.38
2022-12-03T17:15:41.058Z,7.49
2022-12-03T17:18:09.964Z,7.23
2022-12-03T17:20:37.842Z,7.10
2022-12-03T17:23:06.852Z,7.29
2022-12-03T17:25:34.719Z,6.95
2022-12-03T17:28:02.651Z,7.02
2022-12-03T17:30:29.816Z,7.12
2022-12-03T17:32:56.727Z,7.35
2022-12-03T17:35:23.866Z,7.35
2022-12-03T17:37:52.046Z,7.04
2022-12-03T17:40:18.832Z,7.21
2022-12-03T17:42:45.501Z,7.40
2022-12-03T17:45:13.303Z,7.51
2022-12-03T17:47:39.998Z,7.53
2022-12-03T17:50:08.196Z,7.70
2022-12-03T17:55:26.466Z,7.67
2022-12-03T17:58:01.368Z,7.40
2022-12-03T18:00:28.678Z,7.28
2022-12-03T18:02:55.461Z,7.37
2022-12-03T18:05:23.161Z,7.43
2022-12-03T18:07:53.305Z,7.40
2022-12-03T18:10:20.017Z,7.48
2022-12-03T18:12:46.749Z,7.17
2022-12-03T18:15:13.526Z,7.40
2022-12-03T18:17:40.483Z,7.24
2022-12-03T18:20:07.871Z,7.28
2022-12-03T18:22:35.046Z,7.21
2022-12-03T18:25:02.517Z,7.10
2022-12-03T18:27:29.289Z,6.88
2022-12-03T18:29:56.384Z,7.21
2022-12-03T18:32:29.417Z,7.04
2022-12-03T18:34:57.208Z,6.99
2022-12-03T18:37:27.737Z,7.20
2022-12-03T18:39:55.561Z,7.02
2022-12-03T18:42:23.434Z,7.26
2022-12-03T18:44:51.986Z,7.35
2022-12-03T18:47:29.112Z,7.18
2022-12-03T18:49:57.794Z,7.21
2022-12-03T18:52:25.431Z,7.32
2022-12-03T18:54:52.395Z,7.36
2022-12-03T18:57:19.046Z,7.68
2022-12-03T18:59:46.171Z,7.73
2022-12-03T19:02:46.081Z,7.54
2022-12-03T19:05:04.474Z,7.48
2022-12-03T19:07:31.268Z,7.58
2022-12-03T19:09:58.042Z,7.40
2022-12-03T19:12:24.753Z,7.39
2022-12-03T19:14:51.605Z,7.51
2022-12-03T19:17:18.343Z,7.18
2022-12-03T19:19:45.141Z,7.50
2022-12-03T19:22:12.206Z,7.28
2022-12-03T19:24:39.022Z,7.56
2022-12-03T19:27:05.714Z,7.25
2022-12-03T19:29:32.898Z,7.42
2022-12-03T19:32:04.392Z,7.53
2022-12-03T19:39:54.985Z,7.43
2022-12-03T19:42:23.019Z,7.53
2022-12-03T19:44:50.820Z,7.37
2022-12-03T19:47:18.224Z,7.30
2022-12-03T19:49:45.476Z,7.54
2022-12-03T19:52:21.107Z,7.49
2022-12-03T19:54:48.055Z,7.08
2022-12-03T19:57:19.396Z,7.41
2022-12-03T19:59:49.626Z,7.06
2022-12-03T20:02:16.294Z,7.06
2022-12-03T20:04:43.086Z,7.16
2022-12-03T20:07:09.795Z,7.28
2022-12-03T20:09:36.447Z,7.60
2022-12-03T20:12:03.101Z,7.40
2022-12-03T20:14:30.947Z,7.60
2022-12-03T20:16:57.730Z,7.45
2022-12-03T20:19:24.413Z,7.44
2022-12-03T20:21:51.117Z,7.41
2022-12-03T20:24:18.375Z,7.41
2022-12-03T20:26:45.415Z,7.52
2022-12-03T20:29:12.597Z,7.58
2022-12-03T20:31:39.782Z,7.54
2022-12-03T20:34:07.272Z,7.38
2022-12-03T20:36:34.285Z,7.37
2022-12-03T20:39:07.229Z,7.47
2022-12-03T20:41:37.642Z,7.46
2022-12-03T20:44:06.496Z,7.21
2022-12-03T20:46:33.348Z,7.36
2022-12-03T20:49:00.658Z,7.21
2022-12-03T20:51:30.160Z,7.01
2022-12-03T20:53:57.473Z,7.25
2022-12-03T20:56:27.364Z,7.39
2022-12-03T20:58:54.386Z,7.13
2022-12-03T21:01:26.850Z,7.40
2022-12-03T21:03:56.087Z,7.41
2022-12-03T21:06:25.552Z,7.28
2022-12-03T21:08:54.072Z,7.45
2022-12-03T21:11:24.264Z,7.52
2022-12-03T21:13:51.756Z,7.40
2022-12-03T21:16:39.321Z,7.28
2022-12-03T21:19:07.144Z,7.35
2022-12-03T21:21:35.338Z,7.31
2022-12-03T21:24:01.988Z,7.35
2022-12-03T21:26:28.792Z,7.46
2022-12-03T21:28:55.795Z,7.64
2022-12-03T21:31:25.970Z,7.64
2022-12-03T21:33:54.358Z,7.64
2022-12-03T21:36:21.328Z,7.78
2022-12-03T21:38:48.509Z,7.79
2022-12-03T21:41:16.140Z,7.63
2022-12-03T21:43:43.507Z,7.24
2022-12-03T21:47:11.391Z,7.34
2022-12-03T21:49:01.514Z,7.11
2022-12-03T21:51:28.156Z,6.93
2022-12-03T21:53:54.926Z,6.85
2022-12-03T21:56:21.729Z,7.02
2022-12-03T21:58:48.352Z,6.88
2022-12-03T22:01:23.939Z,6.95
2022-12-03T22:03:51.097Z,6.97
2022-12-03T22:06:18.580Z,7.10
2022-12-03T22:08:45.469Z,6.96
2022-12-03T22:11:14.888Z,7.07
2022-12-03T22:13:42.122Z,7.30
2022-12-03T22:16:11.815Z,7.26
2022-12-03T22:18:38.890Z,7.23
2022-12-03T22:21:07.646Z,7.41
2022-12-03T22:23:34.813Z,7.41
2022-12-03T22:26:05.091Z,7.08
2022-12-03T22:28:33.362Z,7.16
2022-12-03T22:31:00.686Z,7.14
2022-12-03T22:33:27.294Z,7.30
2022-12-03T22:35:58.425Z,7.28
2022-12-03T22:38:26.075Z,7.30
2022-12-03T22:40:52.891Z,7.25
2022-12-03T22:43:20.440Z,7.30
2022-12-03T22:45:47.772Z,7.34
2022-12-03T22:48:14.804Z,7.27
2022-12-03T22:50:45.506Z,7.47
2022-12-03T22:53:13.082Z,7.43
2022-12-03T22:55:39.995Z,7.29
2022-12-03T22:58:07.732Z,7.50
2022-12-03T23:00:37.370Z,7.49
2022-12-03T23:03:05.637Z,7.26
2022-12-03T23:05:38.576Z,7.62
2022-12-03T23:08:07.593Z,7.68
2022-12-03T23:10:36.311Z,7.71
2022-12-03T23:13:03.560Z,7.59
2022-12-03T23:15:30.316Z,7.54
2022-12-03T23:17:57.602Z,7.60
2022-12-03T23:20:25.492Z,7.63
2022-12-03T23:22:52.733Z,7.54
2022-12-03T23:25:19.890Z,7.47
2022-12-03T23:27:46.735Z,7.49
2022-12-03T23:30:15.693Z,7.63
2022-12-03T23:32:44.519Z,7.43
2022-12-03T23:35:12.400Z,7.57
2022-12-03T23:37:42.563Z,7.43
2022-12-03T23:40:09.791Z,7.54
2022-12-03T23:42:36.484Z,7.63
2022-12-03T23:45:03.742Z,7.76
2022-12-03T23:47:30.458Z,7.76
2022-12-03T23:49:57.463Z,7.68
2022-12-03T23:52:24.602Z,7.31
2022-12-03T23:54:51.245Z,7.69
2022-12-03T23:57:18.468Z,7.55
2022-12-03T23:59:45.205Z,7.68
